Wednesday, August 15, 2018, 4:43 AM EDT
Back to Local

KPBG, Plattsburgh International Airport

Location: Plattsburgh, NY, United States Lat: 44.65
Local Time: 4:43 AM EDT ( 8:43 GMT) Lon: -73.467
Time Zone: US/Eastern Elev: 239 ft

Show me the last for .
Show Decoded

2018-08-15 03:53 METAR KPBG 150753Z AUTO 00000KT 10SM OVC034 19/18 A2978 RMK AO2 SLP085 T01890183
                 =
2018-08-15 02:53 METAR KPBG 150653Z AUTO 00000KT 10SM BKN032 18/18 A2978 RMK AO2 SLP085 T01830178
                 =
2018-08-15 01:53 METAR KPBG 150553Z AUTO 00000KT 10SM CLR 18/18 A2979 RMK AO2 SLP086 T01830178
                 10233 20183 50002 =
2018-08-15 00:53 METAR KPBG 150453Z AUTO 00000KT 10SM BKN050 18/18 A2980 RMK AO2 SLP089 T01830183
                 402830183 =
2018-08-14 23:53 METAR KPBG 150353Z AUTO 00000KT 10SM CLR 19/19 A2979 RMK AO2 SLP087 T01940189 =
2018-08-14 22:53 METAR KPBG 150253Z AUTO 00000KT 10SM FEW060 19/19 A2978 RMK AO2 SLP084 T01940189
                 50006 =
2018-08-14 21:53 METAR KPBG 150153Z AUTO 00000KT 10SM CLR 21/19 A2979 RMK AO2 SLP086 T02060194 =
2018-08-14 20:53 METAR KPBG 150053Z AUTO 27003KT 10SM CLR 21/20 A2979 RMK AO2 SLP085 T02110200 =
2018-08-14 19:53 METAR KPBG 142353Z AUTO 00000KT 10SM CLR 23/20 A2976 RMK AO2 SLP078 T02330200
                 10283 20233 55002 =
2018-08-14 18:53 METAR KPBG 142253Z AUTO 18003KT 10SM CLR 27/20 A2975 RMK AO2 SLP074 T02720200 =
2018-08-14 17:53 METAR KPBG 142153Z AUTO 16004KT 10SM CLR 28/19 A2977 RMK AO2 SLP078 T02780189 =
2018-08-14 16:53 METAR KPBG 142053Z AUTO 18004KT 10SM CLR 27/18 A2977 RMK AO2 SLP079 T02720183
                 56019 =
2018-08-14 15:53 METAR KPBG 141953Z AUTO 14008KT 10SM CLR 28/20 A2979 RMK AO2 SLP085 T02780200 =
2018-08-14 14:53 METAR KPBG 141853Z AUTO 12008KT 10SM CLR 28/21 A2980 RMK AO2 SLP090 T02780206 =
2018-08-14 13:53 METAR KPBG 141753Z AUTO VRB04KT 10SM CLR 27/21 A2982 RMK AO2 SLP098 60002
                 T02720211 10272 20211 58017 =
2018-08-14 12:53 METAR KPBG 141653Z AUTO 13004KT 10SM OVC060 25/20 A2984 RMK AO2 SLP105 T02500200
                 =
2018-08-14 11:53 METAR KPBG 141553Z AUTO VRB03KT 10SM SCT014 BKN035 BKN080 23/21 A2986 RMK AO2
                 RAE12 SLP112 P0000 T02280211 =
2018-08-14 11:45 METAR KPBG 141545Z AUTO 11003KT 10SM FEW009 BKN014 BKN033 22/21 A2986 RMK AO2
                 RAE12 P0000 T02220211 =
2018-08-14 10:53 METAR KPBG 141453Z AUTO 04003KT 4SM -RA BR FEW009 BKN031 OVC035 22/22 A2988 RMK
                 AO2 RAB26 SLP116 P0002 60002 T02220217 58003 =
2018-08-14 10:19 METAR KPBG 141419Z AUTO 03004KT 10SM SCT009 OVC033 22/21 A2988 RMK AO2 T02170206
                 =
2018-08-14 10:01 METAR KPBG 141401Z AUTO 02003KT 10SM BKN009 OVC035 22/21 A2988 RMK AO2 T02170206
                 =
2018-08-14 09:53 METAR KPBG 141353Z AUTO 06003KT 10SM SCT009 OVC037 22/21 A2988 RMK AO2 SLP118
                 T02170206 =
2018-08-14 08:53 METAR KPBG 141253Z AUTO 05003KT 10SM FEW009 OVC042 21/21 A2989 RMK AO2 SLP120
                 T02110206 =
2018-08-14 08:30 METAR KPBG 141230Z AUTO 03005KT 10SM FEW010 BKN042 OVC049 21/21 A2989 RMK AO2
                 T02110206 =
2018-08-14 08:07 METAR KPBG 141207Z AUTO 00000KT 10SM BKN010 BKN035 OVC048 21/21 A2989 RMK AO2
                 T02110206 =
2018-08-14 07:53 METAR KPBG 141153Z AUTO 03003KT 10SM FEW010 BKN038 OVC049 21/21 A2989 RMK AO2
                 RAE03 SLP121 P0000 60010 70010 T02110206 10211 20194 53000 =
2018-08-14 06:53 METAR KPBG 141053Z AUTO 00000KT 10SM -RA BKN040 OVC055 21/20 A2989 RMK AO2
                 SLP120 P0005 T02060200 =
2018-08-14 05:53 METAR KPBG 140953Z AUTO 00000KT 5SM RA BR BKN050 BKN070 OVC110 20/19 A2989 RMK
                 AO2 SLP119 P0004 T02000194 =
2018-08-14 04:53 METAR KPBG 140853Z AUTO 00000KT 9SM -RA OVC100 20/19 A2989 RMK AO2 RAB47 SLP119
                 P0001 60001 T02000194 56012 =

Support USWX by starting your Amazon purchase here.